DIRECCIÓN GENERAL DE AERONÁUTICA CIVIL
DIRECCIÓN METEOROLÓGICA DE CHILE
INFORMACIÓN METAR Y TAF

FIR SANTIAGO

Estación: SCSE
METAR SCSE 240600Z 09003KT 9999 OVC015 13/10 Q1016=

TAF SCSE 240400Z 2406/2506 VRB02KT 9999 BKN015 TX18/2419Z TN11/2410Z BECMG 2406/2408 6000 OVC012 TEMPO 2408/2412 3000 -DZ BR OVC008 BECMG 2414/2416 9999 BKN010 BECMG 2416/2418 30010KT SCT015 BECMG 2418/2420 CAVOK BECMG 2501/2503 16005KT BECMG 2503/2505 BKN015=

Estación: SCER
METAR SCER 161100Z 00000KT 7000 OVC014 12/10 Q1015=

TAF SCER NIL=

Estación: SCRD
METAR SCRD 232200Z 29004KT 5000 BR OVC007 11/10 Q1017=

TAF SCRD 231019Z 2312/2324 VRB02KT 0200 -DZ FG VV001 TX15/2318Z TN10/ 2312Z BECMG 2315/2317 33010KT 3000 BR OVC003=

Estación: SCVM
METAR SCVM 240600Z 16003KT 7000 OVC017 12/10 Q1016=

TAF SCVM 240401Z 2406/2506 VRB02KT 6000 OVC015 TX18/2419Z TN08/2410Z TEMPO 2406/2412 2000 BR OVC008 BECMG 2415/2417 30010KT 9999 BKN017 BECMG 2418/2420 SCT020 BECMG 2501/2503 VRB02KT=

Estación: SCTB
METAR SCTB 232200Z 24003KT 8000 SKC 21/11 Q1016=

TAF SCTB 231019Z 2312/2324 VRB02KT CAVOK TX26/2318Z TN09/2312Z BECMG 2316/2318 19008KT=

Estación: SCEL
SPECI SCEL 240613Z 18004KT 4000 0400SW R17L/P2000N BCFG FEW001 09/06 Q1016 NOSIG=

TAF SCEL 240402Z 2406/2506 15004KT 3000 BR SCT005 TX24/2419Z TN07/ 2410Z TEMPO 2406/2408 VRB02KT 0800 BCFG BKN002 TEMPO 2408/2414 0500 FG BECMG 2414/2416 17005KT 5000 HZ SKC BECMG 2416/2418 19012KT CAVOK BECMG 2423/2501 15008KT BECMG 2501/2503 7000=

Estación: SCSN
METAR SCSN 240000Z 33004KT 6000 OVC011 13/10 Q1018=

TAF SCSN 231018Z 2312/2324 VRB02KT 2500 BR OVC008 TX15/2318Z TN08/ 2312Z TEMPO 2312/2314 0600 -DZ FG BKN008 BECMG 2314/2316 28008KT 8000 BKN010=

Estación: SCRG
METAR SCRG 232000Z 18015KT 6000 SKC 23/12 Q1014=

TAF SCRG 231020Z 2312/2324 VRB02KT 5000 BR NSC TX24/2318Z TN08/2312Z BECMG 2314/2316 19008KT=

Estación: SCIC
SPECI SCIC 240631Z AUTO 02002KT 4400 BR VV004 04/04 Q1015=

TAF SCIC 231021Z 2312/2324 15004KT 5000 BR BKN008 TX22/2318Z TN08/ 2312Z TEMPO 2312/2314 0800 FG BKN003 BECMG 2315/2317 18008KT 9999 SCT015=

Estación: SCCH
METAR SCCH 232200Z 20006KT CAVOK 20/10 Q1016=

TAF SCCH 231021Z 2312/2324 17004KT 5000 BR BKN008 TX21/2318Z TN07/ 2312Z TEMPO 2312/2314 VRB02KT 0800 BCFG OVC003 BECMG 2316/2318 19008KT 9999 SCT025=

Estación: SCIE
METAR SCIE 240600Z 21005KT CAVOK 10/10 Q1017=

TAF SCIE 240403Z 2406/2506 20005KT 9999 SCT008 TX18/2418Z TN08/2410Z BECMG 2406/2408 02005KT 2500 BR OVC004 BECMG 2412/2414 5000 BR BKN010 BECMG 2414/2416 23010KT 9999 SCT010 BECMG 2416/2418 CAVOK BECMG 2501 /2503 20008KT BECMG 2503/2505 SCT008=

Estación: SCGE
METAR SCGE 232100Z 20010KT CAVOK 21/09 Q1015=

TAF SCGE 231022Z 2312/2324 18004KT 5000 BR BKN008 TX21/2318Z TN07/ 2312Z TEMPO 2312/2314 0600 BCFG OVC003 BECMG 2316/2318 19012KT 9999 SCT025=


Volver